Blue Galaxy — SWDA — position and weather

sailwx.info

Track history (hours):
 
Tides and Currents Weather Stations Pressure Air Temp Water Temp Dewpoint Dewpoint Depression Visibility Wind Speed Wind Dir Waves Ship Positions

Blue Galaxy

Last reported at 2017-Nov-25 03:06 UTC. Time now 2017-Nov-25 04:15 UTC.
Position N 35°29' E 024°10'.

Length 192 m; draft 6.7 m.

Type: Passenger vessel. MMSI: 239672000.

Date/timePositionNaut miles runAvg speedWind from/ knotsBaromVisibWave heightAir tempDewpointWater temp
2017-Nov-25 03:06N 35°29' E 024°10'518.4
2017-Nov-25 02:51N 35°33' E 024°14'1519.0
2017-Nov-25 02:02N 35°48' E 024°10'119.4
2017-Nov-25 01:59N 35°49' E 024°10'919.7
2017-Nov-25 01:30N 35°58' E 024°08'1019.5
2017-Nov-25 01:00N 36°07' E 024°05'1019.6
2017-Nov-25 00:30N 36°17' E 024°03'1019.4
2017-Nov-25 00:00N 36°27' E 024°02'1019.4
2017-Nov-24 23:30N 36°36' E 024°00'1019.7
2017-Nov-24 23:00N 36°46' E 023°59'1019.7
2017-Nov-24 22:31N 36°55' E 023°55'1019.6
2017-Nov-24 22:01N 37°05' E 023°53'1119.4
2017-Nov-24 21:27N 37°16' E 023°49'919.5
2017-Nov-24 21:00N 37°24' E 023°47'1019.4
2017-Nov-24 20:30N 37°33' E 023°44'1019.3
2017-Nov-24 20:01N 37°43' E 023°41'918.8
2017-Nov-24 19:31N 37°51' E 023°36'611.3
2017-Nov-24 19:01N 37°57' E 023°38'0 0.0
2017-Nov-24 18:30N 37°57' E 023°38'0 0.0
2017-Nov-24 18:00N 37°57' E 023°38'0 0.0
2017-Nov-24 17:30N 37°57' E 023°38'0 0.0
2017-Nov-24 17:00N 37°57' E 023°38'0 0.0
2017-Nov-24 16:30N 37°57' E 023°38'0 0.0
2017-Nov-24 16:00N 37°57' E 023°38'0 0.0
2017-Nov-24 15:30N 37°57' E 023°38'0 0.0
2017-Nov-24 15:00N 37°57' E 023°38'0 0.0
2017-Nov-24 14:30N 37°57' E 023°38'0 0.0
2017-Nov-24 14:00N 37°57' E 023°38'0 0.0
2017-Nov-24 13:30N 37°57' E 023°38'0 0.0
2017-Nov-24 13:00N 37°57' E 023°38'0 0.0
2017-Nov-24 12:30N 37°57' E 023°38'0 0.0
2017-Nov-24 12:00N 37°57' E 023°38'0 0.0
2017-Nov-24 11:30N 37°57' E 023°38'0 0.0
2017-Nov-24 11:00N 37°57' E 023°38'0 0.0
2017-Nov-24 10:30N 37°57' E 023°38'0 0.0
2017-Nov-24 10:00N 37°57' E 023°38'0 0.0
2017-Nov-24 09:30N 37°57' E 023°38'0 0.0
2017-Nov-24 09:00N 37°57' E 023°38'0 0.0
2017-Nov-24 08:30N 37°57' E 023°38'0 0.0
2017-Nov-24 08:00N 37°57' E 023°38'0 0.0
2017-Nov-24 07:30N 37°57' E 023°38'0 0.0
2017-Nov-24 07:00N 37°57' E 023°38'0 0.0
2017-Nov-24 06:30N 37°57' E 023°38'0 0.0
2017-Nov-24 06:00N 37°57' E 023°38'0 0.0
2017-Nov-24 05:30N 37°57' E 023°38'0 0.0
2017-Nov-24 05:00N 37°57' E 023°38'0 0.0
2017-Nov-24 04:30N 37°57' E 023°38'0 0.0
2017-Nov-24 04:00N 37°57' E 023°38'0 0.6
2017-Nov-24 03:31N 37°57' E 023°38'611.6
2017-Nov-24 03:01N 37°51' E 023°39'1019.5
2017-Nov-24 02:31N 37°42' E 023°44'1019.4
2017-Nov-24 02:01N 37°33' E 023°48'1019.5
2017-Nov-24 01:30N 37°23' E 023°50'1019.4
2017-Nov-24 00:59N 37°13' E 023°52'1119.7
2017-Nov-24 00:25N 37°02' E 023°54'819.6
2017-Nov-24 00:00N 36°54' E 023°56'1019.4
2017-Nov-23 23:31N 36°44' E 023°57'1019.5
2017-Nov-23 23:01N 36°35' E 023°59'1019.2
2017-Nov-23 22:31N 36°25' E 024°01'1019.4
2017-Nov-23 22:01N 36°16' E 024°03'1019.2
2017-Nov-23 21:30N 36°06' E 024°05'1019.0
2017-Nov-23 21:00N 35°57' E 024°08'1019.0
2017-Nov-23 20:30N 35°48' E 024°10'1019.5
2017-Nov-23 19:58N 35°37' E 024°13'9 0.5
2017-Nov-23 03:10N 35°29' E 024°11'518.4
2017-Nov-23 02:54N 35°33' E 024°14'6219.7
2017-Nov-22 23:46N 36°34' E 023°60'519.7
2017-Nov-22 23:31N 36°39' E 023°59'1019.6
2017-Nov-22 23:00N 36°49' E 023°57'1019.7
2017-Nov-22 22:30N 36°58' E 023°54'1019.6
2017-Nov-22 22:01N 37°08' E 023°51'1019.5
2017-Nov-22 21:31N 37°17' E 023°48'1119.7
2017-Nov-22 20:58N 37°28' E 023°45'919.6
2017-Nov-22 20:30N 37°37' E 023°43'1019.6
2017-Nov-22 20:01N 37°46' E 023°39'918.6
2017-Nov-22 19:31N 37°55' E 023°37'  
2017-Nov-19 19:56N 35°35' E 024°13'116 5.0
2017-Nov-18 20:55N 37°29' E 023°45'819.1
2017-Nov-18 20:30N 37°37' E 023°43'1019.2
2017-Nov-18 20:00N 37°46' E 023°39'918.6
2017-Nov-18 19:30N 37°55' E 023°36'3 5.2
2017-Nov-18 19:00N 37°57' E 023°38'0 0.0
2017-Nov-18 18:30N 37°57' E 023°38'0 0.0
2017-Nov-18 18:00N 37°57' E 023°38'0 0.0
2017-Nov-18 17:30N 37°57' E 023°38'0 0.0
2017-Nov-18 17:00N 37°57' E 023°38'0 0.0
2017-Nov-18 16:29N 37°57' E 023°38'0 0.0
2017-Nov-18 15:59N 37°57' E 023°38'0 0.0
2017-Nov-18 15:29N 37°57' E 023°38'0 0.0
2017-Nov-18 14:59N 37°57' E 023°38'0 0.0
2017-Nov-18 14:26N 37°57' E 023°38'0 0.0
2017-Nov-18 13:56N 37°57' E 023°38'0 0.0
2017-Nov-18 13:29N 37°57' E 023°38'0 0.0
2017-Nov-18 12:56N 37°57' E 023°38'0 0.0
2017-Nov-18 12:29N 37°57' E 023°38'0 0.0
2017-Nov-18 11:59N 37°57' E 023°38'0 0.0
2017-Nov-18 11:29N 37°57' E 023°38'0 0.0
2017-Nov-18 10:59N 37°57' E 023°38'0 0.0
2017-Nov-18 10:26N 37°57' E 023°38'0 0.0
2017-Nov-18 09:59N 37°57' E 023°38'0 0.0
2017-Nov-18 09:23N 37°57' E 023°38'0 0.0
2017-Nov-18 08:59N 37°57' E 023°38'0 0.0
2017-Nov-18 08:29N 37°57' E 023°38'0 0.0
2017-Nov-18 07:59N 37°57' E 023°38'0 0.0
2017-Nov-18 07:29N 37°57' E 023°38'0 0.0
2017-Nov-18 06:59N 37°57' E 023°38'0 0.0
2017-Nov-18 06:29N 37°57' E 023°38'0 0.0
2017-Nov-18 05:59N 37°57' E 023°38'0 0.0
2017-Nov-18 05:23N 37°57' E 023°38'0 0.0
2017-Nov-18 04:59N 37°57' E 023°38'0 0.0
2017-Nov-18 03:59N 37°57' E 023°38'0 0.6
2017-Nov-18 03:30N 37°57' E 023°38'611.4
2017-Nov-18 03:00N 37°51' E 023°39'1019.5
2017-Nov-18 02:30N 37°42' E 023°45'1019.6
2017-Nov-18 02:00N 37°33' E 023°48'125 5.5
2017-Nov-17 03:16N 35°30' E 024°12'518.5
2017-Nov-17 03:00N 35°34' E 024°13'11819.4
2017-Nov-16 20:56N 37°30' E 023°46'819.2
2017-Nov-16 20:30N 37°38' E 023°42'1019.1
2017-Nov-16 20:00N 37°47' E 023°38'917.9
2017-Nov-16 19:30N 37°56' E 023°37'2 3.1
2017-Nov-16 19:00N 37°57' E 023°38'0 0.0
2017-Nov-16 18:30N 37°57' E 023°38'0 0.0
2017-Nov-16 18:00N 37°57' E 023°38'0 0.0
2017-Nov-16 17:30N 37°57' E 023°38'0 0.0
2017-Nov-16 17:00N 37°57' E 023°38'0 0.0
2017-Nov-16 16:30N 37°57' E 023°38'0 0.0
2017-Nov-16 16:00N 37°57' E 023°38'0 0.0
2017-Nov-16 15:30N 37°57' E 023°38'0 0.0
2017-Nov-16 15:00N 37°57' E 023°38'0 0.0
2017-Nov-16 14:29N 37°57' E 023°38'0 0.0
2017-Nov-16 13:59N 37°57' E 023°38'0 0.0
2017-Nov-16 13:29N 37°57' E 023°38'0 0.0
2017-Nov-16 12:58N 37°57' E 023°38'0 0.0
2017-Nov-16 12:28N 37°57' E 023°38'0 0.0
2017-Nov-16 11:58N 37°57' E 023°38'0 0.0
2017-Nov-16 11:28N 37°57' E 023°38'0 0.0
2017-Nov-16 10:58N 37°57' E 023°38'0 0.0
2017-Nov-16 10:28N 37°57' E 023°38'0 0.0
2017-Nov-16 09:58N 37°57' E 023°38'0 0.0
2017-Nov-16 09:28N 37°57' E 023°38'0 0.0
2017-Nov-16 08:58N 37°57' E 023°38'0 0.0
2017-Nov-16 08:28N 37°57' E 023°38'0 0.0
2017-Nov-16 07:58N 37°57' E 023°38'0 0.0
2017-Nov-16 07:28N 37°57' E 023°38'0 0.0
2017-Nov-16 06:58N 37°57' E 023°38'0 0.0
2017-Nov-16 06:28N 37°57' E 023°38'0 0.0
2017-Nov-16 05:58N 37°57' E 023°38'0 0.0
2017-Nov-16 05:28N 37°57' E 023°38'0 0.0
2017-Nov-16 05:00N 37°57' E 023°38'0 0.0
2017-Nov-16 04:30N 37°57' E 023°38'0 0.0
2017-Nov-16 04:00N 37°57' E 023°38'0 0.7
2017-Nov-16 03:30N 37°57' E 023°38'612.3
2017-Nov-16 03:01N 37°51' E 023°40'1019.6
2017-Nov-16 02:30N 37°42' E 023°45'1019.3
2017-Nov-16 02:00N 37°32' E 023°47'1019.5
2017-Nov-16 01:31N 37°23' E 023°49'1519.7
2017-Nov-16 00:44N 37°07' E 023°53'9419.4
2017-Nov-15 19:53N 35°35' E 024°13'6 0.3
2017-Nov-15 03:12N 35°29' E 024°11'  
Track history (hours):
 
Tides and Currents Weather Stations Pressure Air Temp Water Temp Dewpoint Dewpoint Depression Visibility Wind Speed Wind Dir Waves Ship Positions

Blue Galaxy

Last reported at 2017-Nov-25 03:06 UTC. Time now 2017-Nov-25 04:15 UTC.
Position N 35°29' E 024°10'.

Length 192 m; draft 6.7 m.

Type: Passenger vessel. MMSI: 239672000.

Date/timePositionNaut miles runAvg speedWind from/ knotsBaromVisibWave heightAir tempDewpointWater temp
2017-Nov-25 03:06N 35°29' E 024°10'518.4
2017-Nov-25 02:51N 35°33' E 024°14'1519.0
2017-Nov-25 02:02N 35°48' E 024°10'119.4
2017-Nov-25 01:59N 35°49' E 024°10'919.7
2017-Nov-25 01:30N 35°58' E 024°08'1019.5
2017-Nov-25 01:00N 36°07' E 024°05'1019.6
2017-Nov-25 00:30N 36°17' E 024°03'1019.4
2017-Nov-25 00:00N 36°27' E 024°02'1019.4
2017-Nov-24 23:30N 36°36' E 024°00'1019.7
2017-Nov-24 23:00N 36°46' E 023°59'1019.7
2017-Nov-24 22:31N 36°55' E 023°55'1019.6
2017-Nov-24 22:01N 37°05' E 023°53'1119.4
2017-Nov-24 21:27N 37°16' E 023°49'919.5
2017-Nov-24 21:00N 37°24' E 023°47'1019.4
2017-Nov-24 20:30N 37°33' E 023°44'1019.3
2017-Nov-24 20:01N 37°43' E 023°41'918.8
2017-Nov-24 19:31N 37°51' E 023°36'611.3
2017-Nov-24 19:01N 37°57' E 023°38'0 0.0
2017-Nov-24 18:30N 37°57' E 023°38'0 0.0
2017-Nov-24 18:00N 37°57' E 023°38'0 0.0
2017-Nov-24 17:30N 37°57' E 023°38'0 0.0
2017-Nov-24 17:00N 37°57' E 023°38'0 0.0
2017-Nov-24 16:30N 37°57' E 023°38'0 0.0
2017-Nov-24 16:00N 37°57' E 023°38'0 0.0
2017-Nov-24 15:30N 37°57' E 023°38'0 0.0
2017-Nov-24 15:00N 37°57' E 023°38'0 0.0
2017-Nov-24 14:30N 37°57' E 023°38'0 0.0
2017-Nov-24 14:00N 37°57' E 023°38'0 0.0
2017-Nov-24 13:30N 37°57' E 023°38'0 0.0
2017-Nov-24 13:00N 37°57' E 023°38'0 0.0
2017-Nov-24 12:30N 37°57' E 023°38'0 0.0
2017-Nov-24 12:00N 37°57' E 023°38'0 0.0
2017-Nov-24 11:30N 37°57' E 023°38'0 0.0
2017-Nov-24 11:00N 37°57' E 023°38'0 0.0
2017-Nov-24 10:30N 37°57' E 023°38'0 0.0
2017-Nov-24 10:00N 37°57' E 023°38'0 0.0
2017-Nov-24 09:30N 37°57' E 023°38'0 0.0
2017-Nov-24 09:00N 37°57' E 023°38'0 0.0
2017-Nov-24 08:30N 37°57' E 023°38'0 0.0
2017-Nov-24 08:00N 37°57' E 023°38'0 0.0
2017-Nov-24 07:30N 37°57' E 023°38'0 0.0
2017-Nov-24 07:00N 37°57' E 023°38'0 0.0
2017-Nov-24 06:30N 37°57' E 023°38'0 0.0
2017-Nov-24 06:00N 37°57' E 023°38'0 0.0
2017-Nov-24 05:30N 37°57' E 023°38'0 0.0
2017-Nov-24 05:00N 37°57' E 023°38'0 0.0
2017-Nov-24 04:30N 37°57' E 023°38'0 0.0
2017-Nov-24 04:00N 37°57' E 023°38'0 0.6
2017-Nov-24 03:31N 37°57' E 023°38'611.6
2017-Nov-24 03:01N 37°51' E 023°39'1019.5
2017-Nov-24 02:31N 37°42' E 023°44'1019.4
2017-Nov-24 02:01N 37°33' E 023°48'1019.5
2017-Nov-24 01:30N 37°23' E 023°50'1019.4
2017-Nov-24 00:59N 37°13' E 023°52'1119.7
2017-Nov-24 00:25N 37°02' E 023°54'819.6
2017-Nov-24 00:00N 36°54' E 023°56'1019.4
2017-Nov-23 23:31N 36°44' E 023°57'1019.5
2017-Nov-23 23:01N 36°35' E 023°59'1019.2
2017-Nov-23 22:31N 36°25' E 024°01'1019.4
2017-Nov-23 22:01N 36°16' E 024°03'1019.2
2017-Nov-23 21:30N 36°06' E 024°05'1019.0
2017-Nov-23 21:00N 35°57' E 024°08'1019.0
2017-Nov-23 20:30N 35°48' E 024°10'1019.5
2017-Nov-23 19:58N 35°37' E 024°13'9 0.5
2017-Nov-23 03:10N 35°29' E 024°11'518.4
2017-Nov-23 02:54N 35°33' E 024°14'6219.7
2017-Nov-22 23:46N 36°34' E 023°60'519.7
2017-Nov-22 23:31N 36°39' E 023°59'1019.6
2017-Nov-22 23:00N 36°49' E 023°57'1019.7
2017-Nov-22 22:30N 36°58' E 023°54'1019.6
2017-Nov-22 22:01N 37°08' E 023°51'1019.5
2017-Nov-22 21:31N 37°17' E 023°48'1119.7
2017-Nov-22 20:58N 37°28' E 023°45'919.6
2017-Nov-22 20:30N 37°37' E 023°43'1019.6
2017-Nov-22 20:01N 37°46' E 023°39'918.6
2017-Nov-22 19:31N 37°55' E 023°37'  
2017-Nov-19 19:56N 35°35' E 024°13'116 5.0
2017-Nov-18 20:55N 37°29' E 023°45'819.1
2017-Nov-18 20:30N 37°37' E 023°43'1019.2
2017-Nov-18 20:00N 37°46' E 023°39'918.6
2017-Nov-18 19:30N 37°55' E 023°36'3 5.2
2017-Nov-18 19:00N 37°57' E 023°38'0 0.0
2017-Nov-18 18:30N 37°57' E 023°38'0 0.0
2017-Nov-18 18:00N 37°57' E 023°38'0 0.0
2017-Nov-18 17:30N 37°57' E 023°38'0 0.0
2017-Nov-18 17:00N 37°57' E 023°38'0 0.0
2017-Nov-18 16:29N 37°57' E 023°38'0 0.0
2017-Nov-18 15:59N 37°57' E 023°38'0 0.0
2017-Nov-18 15:29N 37°57' E 023°38'0 0.0
2017-Nov-18 14:59N 37°57' E 023°38'0 0.0
2017-Nov-18 14:26N 37°57' E 023°38'0 0.0
2017-Nov-18 13:56N 37°57' E 023°38'0 0.0
2017-Nov-18 13:29N 37°57' E 023°38'0 0.0
2017-Nov-18 12:56N 37°57' E 023°38'0 0.0
2017-Nov-18 12:29N 37°57' E 023°38'0 0.0
2017-Nov-18 11:59N 37°57' E 023°38'0 0.0
2017-Nov-18 11:29N 37°57' E 023°38'0 0.0
2017-Nov-18 10:59N 37°57' E 023°38'0 0.0
2017-Nov-18 10:26N 37°57' E 023°38'0 0.0
2017-Nov-18 09:59N 37°57' E 023°38'0 0.0
2017-Nov-18 09:23N 37°57' E 023°38'0 0.0
2017-Nov-18 08:59N 37°57' E 023°38'0 0.0
2017-Nov-18 08:29N 37°57' E 023°38'0 0.0
2017-Nov-18 07:59N 37°57' E 023°38'0 0.0
2017-Nov-18 07:29N 37°57' E 023°38'0 0.0
2017-Nov-18 06:59N 37°57' E 023°38'0 0.0
2017-Nov-18 06:29N 37°57' E 023°38'0 0.0
2017-Nov-18 05:59N 37°57' E 023°38'0 0.0
2017-Nov-18 05:23N 37°57' E 023°38'0 0.0
2017-Nov-18 04:59N 37°57' E 023°38'0 0.0
2017-Nov-18 03:59N 37°57' E 023°38'0 0.6
2017-Nov-18 03:30N 37°57' E 023°38'611.4
2017-Nov-18 03:00N 37°51' E 023°39'1019.5
2017-Nov-18 02:30N 37°42' E 023°45'1019.6
2017-Nov-18 02:00N 37°33' E 023°48'125 5.5
2017-Nov-17 03:16N 35°30' E 024°12'518.5
2017-Nov-17 03:00N 35°34' E 024°13'11819.4
2017-Nov-16 20:56N 37°30' E 023°46'819.2
2017-Nov-16 20:30N 37°38' E 023°42'1019.1
2017-Nov-16 20:00N 37°47' E 023°38'917.9
2017-Nov-16 19:30N 37°56' E 023°37'2 3.1
2017-Nov-16 19:00N 37°57' E 023°38'0 0.0
2017-Nov-16 18:30N 37°57' E 023°38'0 0.0
2017-Nov-16 18:00N 37°57' E 023°38'0 0.0
2017-Nov-16 17:30N 37°57' E 023°38'0 0.0
2017-Nov-16 17:00N 37°57' E 023°38'0 0.0
2017-Nov-16 16:30N 37°57' E 023°38'0 0.0
2017-Nov-16 16:00N 37°57' E 023°38'0 0.0
2017-Nov-16 15:30N 37°57' E 023°38'0 0.0
2017-Nov-16 15:00N 37°57' E 023°38'0 0.0
2017-Nov-16 14:29N 37°57' E 023°38'0 0.0
2017-Nov-16 13:59N 37°57' E 023°38'0 0.0
2017-Nov-16 13:29N 37°57' E 023°38'0 0.0
2017-Nov-16 12:58N 37°57' E 023°38'0 0.0
2017-Nov-16 12:28N 37°57' E 023°38'0 0.0
2017-Nov-16 11:58N 37°57' E 023°38'0 0.0
2017-Nov-16 11:28N 37°57' E 023°38'0 0.0
2017-Nov-16 10:58N 37°57' E 023°38'0 0.0
2017-Nov-16 10:28N 37°57' E 023°38'0 0.0
2017-Nov-16 09:58N 37°57' E 023°38'0 0.0
2017-Nov-16 09:28N 37°57' E 023°38'0 0.0
2017-Nov-16 08:58N 37°57' E 023°38'0 0.0
2017-Nov-16 08:28N 37°57' E 023°38'0 0.0
2017-Nov-16 07:58N 37°57' E 023°38'0 0.0
2017-Nov-16 07:28N 37°57' E 023°38'0 0.0
2017-Nov-16 06:58N 37°57' E 023°38'0 0.0
2017-Nov-16 06:28N 37°57' E 023°38'0 0.0
2017-Nov-16 05:58N 37°57' E 023°38'0 0.0
2017-Nov-16 05:28N 37°57' E 023°38'0 0.0
2017-Nov-16 05:00N 37°57' E 023°38'0 0.0
2017-Nov-16 04:30N 37°57' E 023°38'0 0.0
2017-Nov-16 04:00N 37°57' E 023°38'0 0.7
2017-Nov-16 03:30N 37°57' E 023°38'612.3
2017-Nov-16 03:01N 37°51' E 023°40'1019.6
2017-Nov-16 02:30N 37°42' E 023°45'1019.3
2017-Nov-16 02:00N 37°32' E 023°47'1019.5
2017-Nov-16 01:31N 37°23' E 023°49'1519.7
2017-Nov-16 00:44N 37°07' E 023°53'9419.4
2017-Nov-15 19:53N 35°35' E 024°13'6 0.3
2017-Nov-15 03:12N 35°29' E 024°11'  

Dump ship's entire track history